createdAt,value
2022-11-05T00:00:02.765Z,21.92
2022-11-05T00:05:47.190Z,22.02
2022-11-05T00:10:51.021Z,22.69
2022-11-05T00:16:14.724Z,22.00
2022-11-05T00:21:39.013Z,19.34
2022-11-05T00:26:42.337Z,19.17
2022-11-05T00:31:45.673Z,20.26
2022-11-05T00:36:50.572Z,19.55
2022-11-05T00:42:10.135Z,19.28
2022-11-05T00:47:27.407Z,19.31
2022-11-05T00:52:49.821Z,20.01
2022-11-05T00:57:53.405Z,19.49
2022-11-05T01:03:00.526Z,19.66
2022-11-05T01:08:05.281Z,19.42
2022-11-05T01:13:12.736Z,18.93
2022-11-05T01:18:16.673Z,19.49
2022-11-05T01:23:21.684Z,19.21
2022-11-05T01:28:27.730Z,19.68
2022-11-05T01:33:33.614Z,19.36
2022-11-05T01:38:38.458Z,18.89
2022-11-05T01:43:49.793Z,18.87
2022-11-05T01:49:00.061Z,18.87
2022-11-05T01:54:11.375Z,19.81
2022-11-05T01:59:21.762Z,19.41
2022-11-05T02:04:29.185Z,18.53
2022-11-05T02:09:37.597Z,18.42
2022-11-05T02:14:43.531Z,19.00
2022-11-05T02:20:07.095Z,19.03
2022-11-05T02:25:29.930Z,19.39
2022-11-05T02:30:43.270Z,19.82
2022-11-05T02:35:57.950Z,19.61
2022-11-05T02:41:09.754Z,19.62
2022-11-05T02:46:21.808Z,19.71
2022-11-05T02:51:34.130Z,19.82
2022-11-05T02:56:41.970Z,20.36
2022-11-05T03:01:48.161Z,21.91
2022-11-05T03:07:08.798Z,23.69
2022-11-05T03:12:22.518Z,24.45
2022-11-05T03:17:34.396Z,21.57
2022-11-05T03:22:44.576Z,20.69
2022-11-05T03:27:55.189Z,20.60
2022-11-05T03:33:08.860Z,20.80
2022-11-05T03:38:16.519Z,20.32
2022-11-05T03:43:22.625Z,20.77
2022-11-05T03:48:30.259Z,20.38
2022-11-05T03:53:41.810Z,21.11
2022-11-05T03:58:46.831Z,20.52
2022-11-05T04:03:51.502Z,24.46
2022-11-05T04:09:12.329Z,21.71
2022-11-05T04:14:15.645Z,21.88
2022-11-05T04:19:41.573Z,25.22
2022-11-05T04:24:44.958Z,25.86
2022-11-05T04:30:05.900Z,25.07
2022-11-05T04:35:10.703Z,24.95
2022-11-05T04:40:14.048Z,26.53
2022-11-05T04:45:17.529Z,25.51
2022-11-05T04:50:22.988Z,25.69
2022-11-05T04:55:27.018Z,25.31
2022-11-05T05:00:30.634Z,25.56
2022-11-05T05:05:37.568Z,27.75
2022-11-05T05:10:43.504Z,26.98
2022-11-05T05:15:46.878Z,148.73
2022-11-05T05:21:08.976Z,27.80
2022-11-05T05:26:14.530Z,27.39
2022-11-05T05:31:17.860Z,28.23
2022-11-05T05:36:23.094Z,27.55
2022-11-05T05:41:26.553Z,27.62
2022-11-05T05:46:29.938Z,28.24
2022-11-05T05:51:34.681Z,28.76
2022-11-05T05:56:38.067Z,28.32
2022-11-05T06:01:43.711Z,30.03
2022-11-05T06:06:48.629Z,29.47
2022-11-05T06:11:54.512Z,28.66
2022-11-05T06:16:57.811Z,29.40
2022-11-05T06:22:07.213Z,29.01
2022-11-05T06:27:12.821Z,29.41
2022-11-05T06:32:18.616Z,28.81
2022-11-05T06:37:23.359Z,28.39
2022-11-05T06:42:26.736Z,28.63
2022-11-05T06:47:30.075Z,29.49
2022-11-05T06:52:40.798Z,30.10
2022-11-05T06:57:44.606Z,30.29
2022-11-05T07:02:48.114Z,31.49
2022-11-05T07:07:52.832Z,30.53
2022-11-05T07:12:59.129Z,29.17
2022-11-05T07:18:07.763Z,30.25
2022-11-05T07:23:13.966Z,31.30
2022-11-05T07:28:17.813Z,30.73
2022-11-05T07:33:23.528Z,33.28
2022-11-05T07:38:32.953Z,35.25
2022-11-05T07:43:38.833Z,31.59
2022-11-05T07:48:42.307Z,31.06
2022-11-05T07:53:49.720Z,30.72
2022-11-05T07:58:53.092Z,31.35
2022-11-05T08:03:56.476Z,30.05
2022-11-05T08:09:03.730Z,31.33
2022-11-05T08:14:07.137Z,31.93
2022-11-05T08:19:12.701Z,32.18
2022-11-05T08:24:17.389Z,32.80
2022-11-05T08:29:20.770Z,35.73
2022-11-05T08:34:26.451Z,33.83
2022-11-05T08:39:33.695Z,32.46
2022-11-05T08:44:37.305Z,33.91
2022-11-05T08:49:40.684Z,34.79
2022-11-05T08:54:47.889Z,36.29
2022-11-05T08:59:56.671Z,34.40
2022-11-05T09:05:00.048Z,35.41
2022-11-05T09:10:05.028Z,35.08
2022-11-05T09:15:11.024Z,34.29
2022-11-05T09:20:14.456Z,31.39
2022-11-05T09:25:21.721Z,31.04
2022-11-05T09:30:27.440Z,31.70
2022-11-05T09:35:30.844Z,31.49
2022-11-05T09:40:40.637Z,34.64
2022-11-05T09:45:45.074Z,35.32
2022-11-05T09:50:53.402Z,38.07
2022-11-05T09:56:01.852Z,38.77
2022-11-05T10:01:08.550Z,38.81
2022-11-05T10:06:16.756Z,40.40
2022-11-05T10:11:28.789Z,39.23
2022-11-05T10:16:35.438Z,42.01
2022-11-05T10:22:04.744Z,39.35
2022-11-05T10:27:07.358Z,39.86
2022-11-05T10:32:14.631Z,44.35
2022-11-05T10:37:18.724Z,40.84
2022-11-05T10:42:34.476Z,40.01
2022-11-05T10:47:56.813Z,42.62
2022-11-05T10:53:01.085Z,40.22
2022-11-05T10:58:19.496Z,39.39
2022-11-05T11:03:35.270Z,38.04
2022-11-05T11:08:38.867Z,37.05
2022-11-05T11:13:52.246Z,39.44
2022-11-05T11:18:57.038Z,42.17
2022-11-05T11:24:02.945Z,42.32
2022-11-05T11:29:20.944Z,41.38
2022-11-05T11:34:30.083Z,41.56
2022-11-05T11:39:36.181Z,44.52
2022-11-05T11:44:44.862Z,44.77
2022-11-05T11:49:50.880Z,43.33
2022-11-05T11:54:54.603Z,44.58
2022-11-05T12:00:08.945Z,46.30
2022-11-05T12:05:26.970Z,54.11
2022-11-05T12:10:40.468Z,47.74
2022-11-05T12:15:51.250Z,46.71
2022-11-05T12:21:12.543Z,50.10
2022-11-05T12:26:24.201Z,50.04
2022-11-05T12:31:38.705Z,47.62
2022-11-05T12:37:01.671Z,47.14
2022-11-05T12:42:09.694Z,54.68
2022-11-05T12:47:25.607Z,94.90
2022-11-05T12:52:51.635Z,51.01
2022-11-05T12:57:58.296Z,49.93
2022-11-05T13:03:17.815Z,49.82
2022-11-05T13:08:25.187Z,48.75
2022-11-05T13:13:37.347Z,50.50
2022-11-05T13:18:47.799Z,50.58
2022-11-05T13:23:55.258Z,50.12
2022-11-05T13:29:05.882Z,49.11
2022-11-05T13:34:14.273Z,48.89
2022-11-05T13:39:22.354Z,55.29
2022-11-05T13:44:38.926Z,62.91
2022-11-05T13:49:56.858Z,63.98
2022-11-05T13:55:09.191Z,72.43
2022-11-05T14:00:17.949Z,85.16
2022-11-05T14:05:26.071Z,111.78
2022-11-05T14:10:36.458Z,126.92
2022-11-05T14:15:39.845Z,68.59
2022-11-05T14:20:58.292Z,69.65
2022-11-05T14:26:14.051Z,66.82
2022-11-05T14:31:41.037Z,60.78
2022-11-05T14:42:21.271Z,53.09
2022-11-05T14:47:28.517Z,49.73
2022-11-05T14:52:33.051Z,48.64
2022-11-05T14:57:56.731Z,47.81
2022-11-05T15:03:06.424Z,48.05
2022-11-05T15:08:28.546Z,46.59
2022-11-05T15:13:35.556Z,46.24
2022-11-05T15:18:45.654Z,46.66
2022-11-05T15:23:52.017Z,46.92
2022-11-05T15:28:56.590Z,46.31
2022-11-05T15:34:18.945Z,45.59
2022-11-05T15:39:30.024Z,45.06
2022-11-05T15:44:35.847Z,43.23
2022-11-05T15:49:44.508Z,42.20
2022-11-05T15:55:06.789Z,40.24
2022-11-05T16:00:17.915Z,40.16
2022-11-05T16:05:23.490Z,39.17
2022-11-05T16:10:31.956Z,39.65
2022-11-05T16:15:37.711Z,40.30
2022-11-05T16:20:42.542Z,38.65
2022-11-05T16:25:47.240Z,39.48
2022-11-05T16:30:55.222Z,41.64
2022-11-05T16:36:00.002Z,43.82
2022-11-05T16:41:03.553Z,41.56
2022-11-05T16:46:07.019Z,45.15
2022-11-05T16:51:12.306Z,44.65
2022-11-05T16:56:17.763Z,43.48
2022-11-05T17:01:22.822Z,43.53
2022-11-05T17:06:27.742Z,44.92
2022-11-05T17:11:31.225Z,46.04
2022-11-05T17:16:39.029Z,41.94
2022-11-05T17:21:46.804Z,44.18
2022-11-05T17:26:50.203Z,43.58
2022-11-05T17:31:53.594Z,43.07
2022-11-05T17:36:58.402Z,44.21
2022-11-05T17:42:01.817Z,44.03
2022-11-05T17:47:05.298Z,43.63
2022-11-05T17:52:14.980Z,44.29
2022-11-05T17:57:18.498Z,55.67
2022-11-05T18:02:24.441Z,52.04
2022-11-05T18:07:29.338Z,43.22
2022-11-05T18:12:35.912Z,44.80
2022-11-05T18:17:41.940Z,40.54
2022-11-05T18:22:46.797Z,40.56
2022-11-05T18:27:50.224Z,42.01
2022-11-05T18:32:53.674Z,43.53
2022-11-05T18:37:58.414Z,39.96
2022-11-05T18:43:01.798Z,42.05
2022-11-05T18:48:08.030Z,41.92
2022-11-05T18:53:12.865Z,37.99
2022-11-05T18:58:19.455Z,35.87
2022-11-05T19:03:27.583Z,32.36
2022-11-05T19:08:33.638Z,34.00
2022-11-05T19:13:37.416Z,26.39
2022-11-05T19:18:41.631Z,26.69
2022-11-05T19:23:46.446Z,24.42
2022-11-05T19:28:50.472Z,24.24
2022-11-05T19:33:57.367Z,21.84
2022-11-05T19:39:06.562Z,24.50
2022-11-05T19:44:12.519Z,22.42
2022-11-05T19:49:18.946Z,17.85
2022-11-05T19:54:26.394Z,16.80
2022-11-05T19:59:32.238Z,15.93
2022-11-05T20:04:35.789Z,15.49
2022-11-05T20:09:40.922Z,14.81
2022-11-05T20:14:44.951Z,14.79
2022-11-05T20:19:49.772Z,15.54
2022-11-05T20:24:54.498Z,27.36
2022-11-05T20:29:57.881Z,16.95
2022-11-05T20:35:01.386Z,16.10
2022-11-05T20:40:07.016Z,17.23
2022-11-05T20:45:11.835Z,17.20
2022-11-05T20:50:15.325Z,17.90
2022-11-05T20:55:20.123Z,19.87
2022-11-05T21:00:23.893Z,20.67
2022-11-05T21:05:35.156Z,22.98
2022-11-05T21:10:47.209Z,24.44
2022-11-05T21:15:55.371Z,23.73
2022-11-05T21:21:00.455Z,24.81
2022-11-05T21:26:08.580Z,26.19
2022-11-05T21:31:11.959Z,25.27
2022-11-05T21:36:16.037Z,25.01
2022-11-05T21:41:23.145Z,25.02
2022-11-05T21:46:26.632Z,25.47
2022-11-05T21:51:47.144Z,26.23
2022-11-05T21:57:11.085Z,26.03
2022-11-05T22:02:16.379Z,26.38
2022-11-05T22:07:21.803Z,25.65
2022-11-05T22:12:29.423Z,25.12
2022-11-05T22:17:35.344Z,25.07
2022-11-05T22:22:38.716Z,25.41
2022-11-05T22:27:44.342Z,22.24
2022-11-05T22:32:50.065Z,21.56
2022-11-05T22:37:53.506Z,34.04
2022-11-05T22:43:00.446Z,21.53
2022-11-05T22:48:07.225Z,20.56
2022-11-05T22:53:10.985Z,20.21
2022-11-05T22:58:17.918Z,19.53
2022-11-05T23:03:21.390Z,19.30
2022-11-05T23:08:45.243Z,19.92
2022-11-05T23:13:50.045Z,19.63
2022-11-05T23:19:10.689Z,19.48
2022-11-05T23:24:16.367Z,18.14
2022-11-05T23:29:22.497Z,18.83
2022-11-05T23:34:29.762Z,19.12
2022-11-05T23:39:36.846Z,21.39
2022-11-05T23:45:10.373Z,20.74
2022-11-05T23:50:16.707Z,20.64
2022-11-05T23:55:20.191Z,21.78
